Time;durP1;ratioP1;P1;durP2;ratioP2;P2;SDS_P1;SDS_P2;PMS_P1;PMS_P2;Temp;Humidity;BMP_temperature;BMP_pressure;BME280_temperature;BME280_humidity;BME280_pressure;Samples;Min_cycle;Max_cycle;Signal;HPM_P1;HPM_P2
2022/05/22 00:02:12;;;;;;;;;;;8.60;99.90;;;;;;5053521;28;19917;-70
2022/05/22 00:04:38;;;;;;;;;;;8.50;99.90;;;;;;5053420;28;19908;-70
2022/05/22 00:07:05;;;;;;;;;;;8.40;99.90;;;;;;5053942;28;20270;-70
2022/05/22 00:09:31;;;;;;;;;;;8.50;99.90;;;;;;5053663;28;20409;-69
2022/05/22 00:11:57;;;;;;;;;;;8.60;99.90;;;;;;5053357;28;20050;-70
2022/05/22 00:14:25;;;;;;;;;;;8.60;99.90;;;;;;5053208;28;19962;-70
2022/05/22 00:16:51;;;;;;;;;;;8.60;99.90;;;;;;5053673;28;20285;-70
2022/05/22 00:19:21;;;;;;;;;;;8.60;99.90;;;;;;5053669;28;19909;-70
2022/05/22 00:21:47;;;;;;;;;;;8.60;99.90;;;;;;5053097;28;20010;-70
2022/05/22 00:24:13;;;;;;;;;;;8.50;99.90;;;;;;5052784;28;20341;-69
2022/05/22 00:26:40;;;;;;;;;;;8.40;99.90;;;;;;5059070;28;19908;-69
2022/05/22 00:29:05;;;;;;;;;;;8.40;99.90;;;;;;5055651;28;20277;-69
2022/05/22 00:31:31;;;;;;;;;;;8.40;99.90;;;;;;5052979;28;19909;-70
2022/05/22 00:33:56;;;;;;;;;;;8.40;99.90;;;;;;5053190;28;20366;-70
2022/05/22 00:36:22;;;;;;;;;;;8.40;99.90;;;;;;5053403;28;19909;-70
2022/05/22 00:38:48;;;;;;;;;;;8.40;99.90;;;;;;5053173;28;19908;-69
2022/05/22 00:41:13;;;;;;;;;;;8.40;99.90;;;;;;5052676;28;19958;-70
2022/05/22 00:43:40;;;;;;;;;;;8.40;99.90;;;;;;5052869;28;19909;-69
2022/05/22 00:46:07;;;;;;;;;;;8.30;99.90;;;;;;5053331;28;19941;-69
2022/05/22 00:48:33;;;;;;;;;;;8.20;99.90;;;;;;5053088;28;19912;-70
2022/05/22 00:51:07;;;;;;;;;;;8.20;99.90;;;;;;5053120;28;20007;-70
2022/05/22 00:53:36;;;;;;;;;;;8.10;99.90;;;;;;5051605;28;20285;-69
2022/05/22 00:56:05;;;;;;;;;;;8.10;99.90;;;;;;5052558;28;20388;-69
2022/05/22 00:58:30;;;;;;;;;;;8.10;99.90;;;;;;5052660;28;19920;-69
2022/05/22 01:00:56;;;;;;;;;;;8.10;99.90;;;;;;5052841;28;19913;-69
2022/05/22 01:03:27;;;;;;;;;;;8.00;99.90;;;;;;5051724;28;19909;-69
2022/05/22 01:05:53;;;;;;;;;;;8.00;99.90;;;;;;5053298;28;19909;-69
2022/05/22 01:08:19;;;;;;;;;;;7.90;99.90;;;;;;5052668;28;19909;-70
2022/05/22 01:10:46;;;;;;;;;;;7.80;99.90;;;;;;5052714;28;19909;-69
2022/05/22 01:13:12;;;;;;;;;;;8.00;99.90;;;;;;5051553;28;19963;-69
2022/05/22 01:15:38;;;;;;;;;;;7.90;99.90;;;;;;5052644;28;20293;-69
2022/05/22 01:18:04;;;;;;;;;;;7.80;99.90;;;;;;5052816;28;19909;-70
2022/05/22 01:20:29;;;;;;;;;;;7.80;99.90;;;;;;5052463;28;20118;-70
2022/05/22 01:22:55;;;;;;;;;;;7.80;99.90;;;;;;5051168;28;19921;-69
2022/05/22 01:25:20;;;;;;;;;;;7.90;99.90;;;;;;5051441;28;20009;-69
2022/05/22 01:27:46;;;;;;;;;;;7.80;99.90;;;;;;5056347;28;19909;-69
2022/05/22 01:30:13;;;;;;;;;;;7.80;99.90;;;;;;5052585;28;19909;-70
2022/05/22 01:32:40;;;;;;;;;;;7.70;99.90;;;;;;5051139;28;19919;-69
2022/05/22 01:35:06;;;;;;;;;;;7.70;99.90;;;;;;5051807;28;19909;-70
2022/05/22 01:37:32;;;;;;;;;;;7.70;99.90;;;;;;5052118;28;19918;-69
2022/05/22 01:39:57;;;;;;;;;;;7.70;99.90;;;;;;5051978;28;20014;-69
2022/05/22 01:42:23;;;;;;;;;;;7.70;99.90;;;;;;5051741;28;19912;-69
2022/05/22 01:44:48;;;;;;;;;;;7.70;99.90;;;;;;5051663;28;20431;-70
2022/05/22 01:47:14;;;;;;;;;;;7.70;99.90;;;;;;5052173;28;19912;-70
2022/05/22 01:49:39;;;;;;;;;;;7.80;99.90;;;;;;5051581;28;19990;-69
2022/05/22 01:52:05;;;;;;;;;;;7.60;99.90;;;;;;5049755;28;19909;-69
2022/05/22 01:54:30;;;;;;;;;;;7.50;99.90;;;;;;5051434;28;20289;-69
2022/05/22 01:56:56;;;;;;;;;;;7.50;99.90;;;;;;5063428;28;19916;-70
2022/05/22 01:59:22;;;;;;;;;;;7.50;99.90;;;;;;5052204;28;20007;-69
2022/05/22 02:01:47;;;;;;;;;;;7.50;99.90;;;;;;5051652;28;20007;-69
2022/05/22 02:04:13;;;;;;;;;;;7.40;99.90;;;;;;5050220;28;19992;-69
2022/05/22 02:08:19;;;;;;;;;;;7.30;99.90;;;;;;5052256;28;20359;-70
2022/05/22 02:09:27;;;;;;;;;;;7.20;99.90;;;;;;5051537;28;19944;-69
2022/05/22 02:11:52;;;;;;;;;;;7.30;99.90;;;;;;5051571;28;20314;-72
2022/05/22 02:14:18;;;;;;;;;;;7.40;99.90;;;;;;5051615;28;20358;-69
2022/05/22 02:16:43;;;;;;;;;;;7.40;99.90;;;;;;5051756;28;19995;-69
2022/05/22 02:19:10;;;;;;;;;;;7.50;99.90;;;;;;5051625;28;19909;-69
2022/05/22 02:21:36;;;;;;;;;;;7.60;99.90;;;;;;5051398;28;19912;-69
2022/05/22 02:24:01;;;;;;;;;;;7.50;99.90;;;;;;5051250;28;19909;-69
2022/05/22 02:26:27;;;;;;;;;;;7.50;99.90;;;;;;5051162;28;19913;-70
2022/05/22 02:28:52;;;;;;;;;;;7.50;99.90;;;;;;5057027;28;19962;-69
2022/05/22 02:31:17;;;;;;;;;;;7.50;99.90;;;;;;5051814;28;19909;-70
2022/05/22 02:33:43;;;;;;;;;;;7.50;99.90;;;;;;5051006;28;19909;-70
2022/05/22 02:36:13;;;;;;;;;;;7.60;99.90;;;;;;5051626;28;19993;-70
2022/05/22 02:38:39;;;;;;;;;;;7.70;99.90;;;;;;5051575;28;20301;-71
2022/05/22 02:41:12;;;;;;;;;;;7.60;99.90;;;;;;5051037;28;19935;-72
2022/05/22 02:43:37;;;;;;;;;;;7.70;99.90;;;;;;5050580;28;20014;-69
2022/05/22 02:46:07;;;;;;;;;;;7.60;99.90;;;;;;5070665;28;19995;-69
2022/05/22 02:48:32;;;;;;;;;;;7.50;99.90;;;;;;5070498;28;19920;-69
2022/05/22 02:50:58;;;;;;;;;;;7.40;99.90;;;;;;5070922;28;19909;-70
2022/05/22 02:53:25;;;;;;;;;;;7.40;99.90;;;;;;5049741;28;21346;-71
2022/05/22 02:55:51;;;;;;;;;;;7.40;99.90;;;;;;5050829;28;19943;-70
2022/05/22 02:58:16;;;;;;;;;;;7.40;99.90;;;;;;5052874;28;19959;-70
2022/05/22 03:00:42;;;;;;;;;;;7.50;99.90;;;;;;5051106;28;20058;-70
2022/05/22 03:03:07;;;;;;;;;;;7.50;99.90;;;;;;5051529;28;20255;-70
2022/05/22 03:08:17;;;;;;;;;;;7.50;99.90;;;;;;5055400;28;19991;-70
2022/05/22 03:10:44;;;;;;;;;;;7.50;99.90;;;;;;5054834;28;19940;-70
2022/05/22 03:13:10;;;;;;;;;;;7.40;99.90;;;;;;5053645;28;19955;-71
2022/05/22 03:15:36;;;;;;;;;;;7.40;99.90;;;;;;5054988;28;19913;-70
2022/05/22 03:18:01;;;;;;;;;;;7.40;99.90;;;;;;5054944;28;20411;-70
2022/05/22 03:20:28;;;;;;;;;;;7.30;99.90;;;;;;5048211;28;19916;-70
2022/05/22 03:22:53;;;;;;;;;;;7.20;99.90;;;;;;5073359;28;19967;-70
2022/05/22 03:25:19;;;;;;;;;;;7.10;99.90;;;;;;5065846;28;19964;-70
2022/05/22 03:27:44;;;;;;;;;;;7.10;99.90;;;;;;5059981;28;19916;-70
2022/05/22 03:30:10;;;;;;;;;;;7.10;99.90;;;;;;5054465;28;20358;-69
2022/05/22 03:32:35;;;;;;;;;;;7.10;99.90;;;;;;5054106;28;19909;-69
2022/05/22 03:35:01;;;;;;;;;;;7.10;99.90;;;;;;5054160;28;19913;-69
2022/05/22 03:37:26;;;;;;;;;;;7.10;99.90;;;;;;5055037;28;19913;-69
2022/05/22 03:39:52;;;;;;;;;;;7.00;99.90;;;;;;5054310;28;19909;-70
2022/05/22 03:42:18;;;;;;;;;;;6.90;99.90;;;;;;5053806;28;19913;-69
2022/05/22 03:44:43;;;;;;;;;;;6.90;99.90;;;;;;5053878;28;19913;-69
2022/05/22 03:47:09;;;;;;;;;;;7.00;99.90;;;;;;5054293;28;19916;-70
2022/05/22 03:49:34;;;;;;;;;;;7.10;99.90;;;;;;5054214;28;19970;-70
2022/05/22 03:52:00;;;;;;;;;;;7.00;99.90;;;;;;5053910;28;19912;-69
2022/05/22 03:54:26;;;;;;;;;;;7.00;99.90;;;;;;5053313;28;19909;-69
2022/05/22 03:56:53;;;;;;;;;;;7.00;99.90;;;;;;5057509;28;19909;-69
2022/05/22 03:59:18;;;;;;;;;;;7.00;99.90;;;;;;5058922;28;19997;-69
2022/05/22 04:01:44;;;;;;;;;;;7.00;99.90;;;;;;5053561;28;20393;-69
2022/05/22 04:04:09;;;;;;;;;;;7.00;99.90;;;;;;5053507;28;19909;-69
2022/05/22 04:06:35;;;;;;;;;;;7.00;99.90;;;;;;5054079;28;20278;-69
2022/05/22 04:09:00;;;;;;;;;;;7.10;99.90;;;;;;5054128;28;20249;-69
2022/05/22 04:11:26;;;;;;;;;;;7.30;99.90;;;;;;5053252;28;19951;-69
2022/05/22 04:13:51;;;;;;;;;;;7.40;99.90;;;;;;5053285;28;19966;-70
2022/05/22 04:16:17;;;;;;;;;;;7.50;99.90;;;;;;5053082;28;20351;-70
2022/05/22 04:18:42;;;;;;;;;;;7.40;99.90;;;;;;5053844;28;19915;-69
2022/05/22 04:21:09;;;;;;;;;;;7.40;99.90;;;;;;5053815;28;19912;-69
2022/05/22 04:26:18;;;;;;;;;;;7.50;99.90;;;;;;5053098;28;19916;-70
2022/05/22 04:28:43;;;;;;;;;;;7.60;99.90;;;;;;5053363;28;19909;-71
2022/05/22 04:31:09;;;;;;;;;;;7.60;99.90;;;;;;5053424;28;19916;-69
2022/05/22 04:33:34;;;;;;;;;;;7.60;99.90;;;;;;5052551;28;19932;-69
2022/05/22 04:36:00;;;;;;;;;;;7.70;99.90;;;;;;5061692;28;19944;-70
2022/05/22 04:38:26;;;;;;;;;;;7.70;99.90;;;;;;5076283;28;20289;-70
2022/05/22 04:40:55;;;;;;;;;;;7.80;99.90;;;;;;5072135;28;20355;-69
2022/05/22 04:43:21;;;;;;;;;;;7.90;99.90;;;;;;5071557;28;20391;-69
2022/05/22 04:45:46;;;;;;;;;;;8.10;99.90;;;;;;5072593;28;19909;-70
2022/05/22 04:48:12;;;;;;;;;;;8.10;99.90;;;;;;5072202;28;20365;-70
2022/05/22 04:50:37;;;;;;;;;;;8.20;99.90;;;;;;5053490;28;20358;-69
2022/05/22 04:53:03;;;;;;;;;;;8.30;99.90;;;;;;5052992;28;19920;-70
2022/05/22 04:55:29;;;;;;;;;;;8.40;99.90;;;;;;5050128;28;19909;-70
2022/05/22 04:57:54;;;;;;;;;;;8.60;99.90;;;;;;5057665;28;19953;-72
2022/05/22 05:00:19;;;;;;;;;;;8.70;99.90;;;;;;5072381;28;19912;-70
2022/05/22 05:02:45;;;;;;;;;;;8.90;99.90;;;;;;5072299;28;19912;-70
2022/05/22 05:05:11;;;;;;;;;;;9.00;99.90;;;;;;5072206;28;20003;-70
2022/05/22 05:07:37;;;;;;;;;;;9.00;99.90;;;;;;5073023;28;20037;-71
2022/05/22 05:10:03;;;;;;;;;;;9.10;99.90;;;;;;5072022;28;20384;-71
2022/05/22 05:12:28;;;;;;;;;;;9.10;99.90;;;;;;5071762;28;19946;-69
2022/05/22 05:14:54;;;;;;;;;;;9.20;99.90;;;;;;5071477;28;20390;-69
2022/05/22 05:17:19;;;;;;;;;;;9.30;99.90;;;;;;5072306;28;19912;-69
2022/05/22 05:19:45;;;;;;;;;;;9.40;99.90;;;;;;5067777;28;19963;-71
2022/05/22 05:22:11;;;;;;;;;;;9.50;99.90;;;;;;5069565;28;19962;-70
2022/05/22 05:24:37;;;;;;;;;;;9.50;99.90;;;;;;5069345;28;19915;-70
2022/05/22 05:27:02;;;;;;;;;;;9.60;99.90;;;;;;5051182;28;19908;-70
2022/05/22 05:29:28;;;;;;;;;;;9.80;99.90;;;;;;5052754;28;20297;-70
2022/05/22 05:31:54;;;;;;;;;;;9.90;99.90;;;;;;5052166;28;19915;-70
2022/05/22 05:34:19;;;;;;;;;;;10.20;99.90;;;;;;5052227;28;19959;-70
2022/05/22 05:36:45;;;;;;;;;;;10.70;99.90;;;;;;5052548;28;19913;-70
2022/05/22 05:39:11;;;;;;;;;;;10.90;99.90;;;;;;5052548;28;20107;-70
2022/05/22 05:41:37;;;;;;;;;;;12.60;99.90;;;;;;5052024;28;19917;-70
2022/05/22 05:44:05;;;;;;;;;;;14.00;99.90;;;;;;5052112;28;19909;-70
2022/05/22 05:46:32;;;;;;;;;;;14.20;99.90;;;;;;5052923;28;19924;-70
2022/05/22 05:48:57;;;;;;;;;;;13.10;99.90;;;;;;5052520;28;19963;-71
2022/05/22 05:51:23;;;;;;;;;;;12.20;99.90;;;;;;5052251;28;19978;-70
2022/05/22 05:53:48;;;;;;;;;;;12.00;99.90;;;;;;5051453;28;19912;-70
2022/05/22 05:56:14;;;;;;;;;;;11.90;99.90;;;;;;5051875;28;19908;-70
2022/05/22 05:58:39;;;;;;;;;;;12.90;99.90;;;;;;5052244;28;19916;-69
2022/05/22 06:01:05;;;;;;;;;;;12.90;99.90;;;;;;5052231;28;20374;-69
2022/05/22 06:03:31;;;;;;;;;;;12.50;99.90;;;;;;5051060;28;19913;-69
2022/05/22 06:05:57;;;;;;;;;;;12.40;99.90;;;;;;5052312;28;19955;-69
2022/05/22 06:08:22;;;;;;;;;;;12.50;99.90;;;;;;5052376;28;19909;-70
2022/05/22 06:10:48;;;;;;;;;;;12.70;99.90;;;;;;5052182;28;19917;-70
2022/05/22 06:13:13;;;;;;;;;;;13.10;99.90;;;;;;5049743;28;19916;-70
2022/05/22 06:15:39;;;;;;;;;;;14.50;99.90;;;;;;5052203;28;19909;-69
2022/05/22 06:18:04;;;;;;;;;;;15.80;99.90;;;;;;5052046;28;19962;-70
2022/05/22 06:20:30;;;;;;;;;;;16.70;99.90;;;;;;5052122;28;19912;-70
2022/05/22 06:22:55;;;;;;;;;;;17.40;99.90;;;;;;5051269;28;20362;-70
2022/05/22 06:25:21;;;;;;;;;;;18.20;99.30;;;;;;5051129;28;20277;-70
2022/05/22 06:27:46;;;;;;;;;;;17.80;99.80;;;;;;5057220;28;19955;-70
2022/05/22 06:30:13;;;;;;;;;;;16.00;99.90;;;;;;5052136;28;19916;-70
2022/05/22 06:32:40;;;;;;;;;;;15.00;99.90;;;;;;5051244;28;19909;-70
2022/05/22 06:35:06;;;;;;;;;;;14.90;99.90;;;;;;5051089;28;19913;-70
2022/05/22 06:37:32;;;;;;;;;;;14.80;99.90;;;;;;5051472;28;20000;-70
2022/05/22 06:39:57;;;;;;;;;;;15.00;99.90;;;;;;5055617;28;20435;-69
2022/05/22 06:42:25;;;;;;;;;;;15.10;99.90;;;;;;5072079;28;20015;-71
2022/05/22 06:45:11;;;;;;;;;;;15.00;99.90;;;;;;5074283;28;20397;-70
2022/05/22 06:47:37;;;;;;;;;;;15.80;99.90;;;;;;5075236;28;19909;-70
2022/05/22 06:50:04;;;;;;;;;;;16.60;99.90;;;;;;5074684;28;20453;-70
2022/05/22 06:52:30;;;;;;;;;;;17.70;99.40;;;;;;5074220;28;20011;-70
2022/05/22 06:54:55;;;;;;;;;;;18.20;97.20;;;;;;5069242;28;19992;-70
2022/05/22 06:57:21;;;;;;;;;;;18.50;95.90;;;;;;5055515;28;19908;-70
2022/05/22 06:59:47;;;;;;;;;;;18.80;96.00;;;;;;5055423;28;19935;-69
2022/05/22 07:02:14;;;;;;;;;;;19.20;93.80;;;;;;5054954;28;20207;-69
2022/05/22 07:04:39;;;;;;;;;;;19.40;93.90;;;;;;5054586;28;19915;-71
2022/05/22 07:07:05;;;;;;;;;;;19.60;92.20;;;;;;5055226;28;19941;-70
2022/05/22 07:09:31;;;;;;;;;;;19.90;93.10;;;;;;5056073;28;19959;-70
2022/05/22 07:11:59;;;;;;;;;;;19.40;93.30;;;;;;5054937;28;19908;-70
2022/05/22 07:14:25;;;;;;;;;;;19.70;93.10;;;;;;5054797;28;19913;-70
2022/05/22 07:16:51;;;;;;;;;;;20.10;92.40;;;;;;5055485;28;19919;-70
2022/05/22 07:19:17;;;;;;;;;;;20.30;92.00;;;;;;5066083;28;20015;-70
2022/05/22 07:21:43;;;;;;;;;;;20.50;92.80;;;;;;5073937;28;19912;-70
2022/05/22 07:24:08;;;;;;;;;;;20.70;89.60;;;;;;5074154;28;19962;-70
2022/05/22 07:26:35;;;;;;;;;;;20.30;91.00;;;;;;5063337;28;19915;-70
2022/05/22 07:29:01;;;;;;;;;;;20.40;92.30;;;;;;5055409;28;19913;-70
2022/05/22 07:31:27;;;;;;;;;;;20.90;88.60;;;;;;5054980;28;19915;-70
2022/05/22 07:33:53;;;;;;;;;;;21.00;90.80;;;;;;5055102;28;20281;-70
2022/05/22 07:36:19;;;;;;;;;;;20.40;87.40;;;;;;5055967;28;19916;-70
2022/05/22 07:38:45;;;;;;;;;;;19.80;92.10;;;;;;5056104;28;20361;-71
2022/05/22 07:41:11;;;;;;;;;;;20.70;89.10;;;;;;5055374;28;19979;-71
2022/05/22 07:43:37;;;;;;;;;;;21.40;89.20;;;;;;5054163;28;19916;-71
2022/05/22 07:46:03;;;;;;;;;;;21.70;89.60;;;;;;5054461;28;19955;-70
2022/05/22 07:48:29;;;;;;;;;;;21.60;83.60;;;;;;5054569;28;20578;-70
2022/05/22 07:51:03;;;;;;;;;;;21.60;83.10;;;;;;5053410;28;20332;-70
2022/05/22 07:53:29;;;;;;;;;;;20.70;85.70;;;;;;5054964;28;20007;-71
2022/05/22 07:55:54;;;;;;;;;;;21.10;85.80;;;;;;5055684;28;19970;-72
2022/05/22 07:58:21;;;;;;;;;;;20.90;82.70;;;;;;5055219;28;19913;-70
2022/05/22 08:00:46;;;;;;;;;;;21.80;83.20;;;;;;5055026;28;20146;-70
2022/05/22 08:03:13;;;;;;;;;;;22.10;80.80;;;;;;5054509;28;20327;-70
2022/05/22 08:05:38;;;;;;;;;;;22.10;82.70;;;;;;5054769;28;19932;-71
2022/05/22 08:08:04;;;;;;;;;;;21.90;83.70;;;;;;5055201;28;20350;-70
2022/05/22 08:10:30;;;;;;;;;;;22.40;79.60;;;;;;5054734;28;19966;-71
2022/05/22 08:12:55;;;;;;;;;;;21.70;79.20;;;;;;5054448;28;19909;-71
2022/05/22 08:15:22;;;;;;;;;;;21.60;80.50;;;;;;5053855;28;20414;-71
2022/05/22 08:17:47;;;;;;;;;;;23.10;84.10;;;;;;5055517;28;19915;-71
2022/05/22 08:20:14;;;;;;;;;;;24.30;77.30;;;;;;5054428;28;19908;-72
2022/05/22 08:22:40;;;;;;;;;;;25.50;77.00;;;;;;5053792;28;19959;-71
2022/05/22 08:25:07;;;;;;;;;;;25.30;72.00;;;;;;5053006;28;20259;-71
2022/05/22 08:27:32;;;;;;;;;;;24.40;72.10;;;;;;5053098;28;19909;-71
2022/05/22 08:29:58;;;;;;;;;;;23.80;75.20;;;;;;5054000;28;20452;-71
2022/05/22 08:32:23;;;;;;;;;;;23.40;72.70;;;;;;5073345;28;19908;-71
2022/05/22 08:34:51;;;;;;;;;;;24.90;70.50;;;;;;5054695;28;19913;-71
2022/05/22 08:37:16;;;;;;;;;;;24.90;72.00;;;;;;5054244;28;19913;-71
2022/05/22 08:39:42;;;;;;;;;;;25.50;69.20;;;;;;5060712;28;20011;-71
2022/05/22 08:42:09;;;;;;;;;;;26.00;71.20;;;;;;5072474;28;20289;-71
2022/05/22 08:44:34;;;;;;;;;;;26.70;68.20;;;;;;5072085;28;19915;-71
2022/05/22 08:47:15;;;;;;;;;;;25.90;64.10;;;;;;5071620;28;19908;-71
2022/05/22 08:50:07;;;;;;;;;;;24.90;67.60;;;;;;5071897;28;19921;-71
2022/05/22 08:52:51;;;;;;;;;;;25.30;71.70;;;;;;5071867;28;19916;-71
2022/05/22 08:55:21;;;;;;;;;;;25.50;70.50;;;;;;5064505;28;19909;-71
2022/05/22 09:00:35;;;;;;;;;;;26.30;68.20;;;;;;5049292;28;20756;-71
2022/05/22 09:03:08;;;;;;;;;;;26.80;64.90;;;;;;5054020;28;19913;-71
2022/05/22 09:05:34;;;;;;;;;;;27.50;65.50;;;;;;5058309;28;20370;-71
2022/05/22 09:07:59;;;;;;;;;;;27.70;68.00;;;;;;5060189;28;19908;-70
2022/05/22 09:10:25;;;;;;;;;;;26.50;65.30;;;;;;5061895;28;19932;-71
2022/05/22 09:13:05;;;;;;;;;;;25.70;68.30;;;;;;5062635;28;19983;-71
2022/05/22 09:15:46;;;;;;;;;;;26.40;68.70;;;;;;5053787;28;20026;-71
2022/05/22 09:18:23;;;;;;;;;;;27.00;68.50;;;;;;5066356;28;19909;-71
2022/05/22 09:20:56;;;;;;;;;;;26.80;66.90;;;;;;5060808;28;20002;-71
2022/05/22 09:23:30;;;;;;;;;;;27.10;63.70;;;;;;5063436;28;19959;-71
2022/05/22 09:26:06;;;;;;;;;;;28.00;65.00;;;;;;5058167;28;19909;-71
2022/05/22 09:28:31;;;;;;;;;;;28.10;64.00;;;;;;5053008;28;19949;-70
2022/05/22 09:31:03;;;;;;;;;;;27.30;64.60;;;;;;5069933;28;19908;-71
2022/05/22 09:33:37;;;;;;;;;;;26.90;60.00;;;;;;5068080;28;19996;-71
2022/05/22 09:36:09;;;;;;;;;;;27.60;67.50;;;;;;5059679;28;19908;-71
2022/05/22 09:38:40;;;;;;;;;;;28.70;66.50;;;;;;5064732;28;20242;-71
2022/05/22 09:41:24;;;;;;;;;;;28.70;66.10;;;;;;5060319;28;20316;-71
2022/05/22 09:43:56;;;;;;;;;;;28.60;60.40;;;;;;5047408;28;19908;-71
2022/05/22 09:46:21;;;;;;;;;;;25.90;63.70;;;;;;5058934;28;19912;-71
2022/05/22 09:48:50;;;;;;;;;;;26.40;63.00;;;;;;5060416;28;20404;-71
2022/05/22 09:51:30;;;;;;;;;;;25.90;62.80;;;;;;5063794;28;19916;-71
2022/05/22 09:54:18;;;;;;;;;;;24.90;65.60;;;;;;5065657;28;19916;-71
2022/05/22 09:57:00;;;;;;;;;;;25.20;66.20;;;;;;5057122;28;19915;-71
2022/05/22 09:59:43;;;;;;;;;;;25.20;65.70;;;;;;5055129;28;19908;-71
2022/05/22 10:02:23;;;;;;;;;;;26.70;65.10;;;;;;5067817;28;20007;-71
2022/05/22 10:04:55;;;;;;;;;;;27.80;63.20;;;;;;5070417;28;20015;-71
2022/05/22 10:07:21;;;;;;;;;;;28.10;63.90;;;;;;5052412;28;19920;-71
2022/05/22 10:09:53;;;;;;;;;;;28.50;62.80;;;;;;5052038;28;19908;-71
2022/05/22 10:12:18;;;;;;;;;;;27.50;61.40;;;;;;5051067;28;20395;-71
2022/05/22 10:14:54;;;;;;;;;;;27.70;59.10;;;;;;5058346;28;19909;-71
2022/05/22 10:17:23;;;;;;;;;;;27.00;57.70;;;;;;5059483;28;19909;-71
2022/05/22 10:19:57;;;;;;;;;;;27.50;65.30;;;;;;5058977;28;19908;-71
2022/05/22 10:22:25;;;;;;;;;;;26.80;63.10;;;;;;5066835;28;19916;-71
2022/05/22 10:24:57;;;;;;;;;;;25.70;64.20;;;;;;5068571;28;19910;-71
2022/05/22 10:27:43;;;;;;;;;;;26.10;65.60;;;;;;5062635;28;19908;-71
2022/05/22 10:30:14;;;;;;;;;;;26.00;62.90;;;;;;5035865;28;19961;-71
2022/05/22 10:32:45;;;;;;;;;;;25.20;65.70;;;;;;5064718;28;19909;-70
2022/05/22 10:35:10;;;;;;;;;;;25.60;67.30;;;;;;5065195;28;19970;-71
2022/05/22 10:37:36;;;;;;;;;;;26.60;66.30;;;;;;5071853;28;19908;-71
2022/05/22 10:40:03;;;;;;;;;;;26.60;62.00;;;;;;5057966;28;19909;-71
2022/05/22 10:42:46;;;;;;;;;;;26.00;62.20;;;;;;5052190;28;19917;-70
2022/05/22 10:45:23;;;;;;;;;;;24.20;64.30;;;;;;5059976;28;19915;-70
2022/05/22 10:47:50;;;;;;;;;;;24.20;65.90;;;;;;5062787;28;19959;-70
2022/05/22 10:50:26;;;;;;;;;;;25.60;64.00;;;;;;5051769;28;19978;-70
2022/05/22 10:52:52;;;;;;;;;;;25.50;64.60;;;;;;5058452;28;19970;-70
2022/05/22 10:55:26;;;;;;;;;;;26.50;60.70;;;;;;5057864;28;19909;-70
2022/05/22 10:57:53;;;;;;;;;;;26.50;59.20;;;;;;5060887;28;19948;-71
2022/05/22 11:00:19;;;;;;;;;;;26.70;60.60;;;;;;5056336;28;19909;-71
2022/05/22 11:02:44;;;;;;;;;;;26.50;56.40;;;;;;5067200;28;20072;-71
2022/05/22 11:05:18;;;;;;;;;;;26.50;59.60;;;;;;5061553;28;20471;-71
2022/05/22 11:07:48;;;;;;;;;;;27.00;62.40;;;;;;5060578;28;20281;-71
2022/05/22 11:10:16;;;;;;;;;;;26.60;58.30;;;;;;5062303;28;19999;-71
2022/05/22 11:12:42;;;;;;;;;;;27.30;57.90;;;;;;5063758;28;19969;-71
2022/05/22 11:15:15;;;;;;;;;;;27.40;57.10;;;;;;5057836;28;19987;-71
2022/05/22 11:17:41;;;;;;;;;;;26.90;57.10;;;;;;5065368;28;19913;-71
2022/05/22 11:20:17;;;;;;;;;;;25.90;57.50;;;;;;5051350;28;19916;-71
2022/05/22 11:22:58;;;;;;;;;;;26.20;59.50;;;;;;5070141;28;20313;-71
2022/05/22 11:25:33;;;;;;;;;;;27.30;60.00;;;;;;5066826;28;19908;-71
2022/05/22 11:28:01;;;;;;;;;;;26.90;56.40;;;;;;5056346;28;19915;-71
2022/05/22 11:30:45;;;;;;;;;;;25.30;59.40;;;;;;5063941;28;19915;-71
2022/05/22 11:33:20;;;;;;;;;;;27.00;61.00;;;;;;5066882;28;19919;-71
2022/05/22 11:35:54;;;;;;;;;;;27.70;59.80;;;;;;5074018;28;19916;-71
2022/05/22 11:38:32;;;;;;;;;;;27.90;55.20;;;;;;5048472;28;19916;-71
2022/05/22 11:41:17;;;;;;;;;;;26.80;55.20;;;;;;5054840;28;19916;-71
2022/05/22 11:44:01;;;;;;;;;;;27.00;59.40;;;;;;5061519;28;19962;-71
2022/05/22 11:46:38;;;;;;;;;;;26.50;55.80;;;;;;5055094;28;20000;-71
2022/05/22 11:49:23;;;;;;;;;;;26.30;56.30;;;;;;5068751;28;20358;-71
2022/05/22 11:51:48;;;;;;;;;;;26.40;54.50;;;;;;5057392;28;19948;-71
2022/05/22 11:54:22;;;;;;;;;;;27.70;55.60;;;;;;5070017;28;19980;-71
2022/05/22 11:56:54;;;;;;;;;;;27.60;58.40;;;;;;5062519;28;19908;-71
2022/05/22 11:59:19;;;;;;;;;;;28.50;53.80;;;;;;5057283;28;19948;-71
2022/05/22 12:01:51;;;;;;;;;;;28.30;50.60;;;;;;5060801;28;19955;-71
2022/05/22 12:04:24;;;;;;;;;;;27.90;55.00;;;;;;5071606;28;19909;-71
2022/05/22 12:07:00;;;;;;;;;;;27.80;55.40;;;;;;5074209;28;19908;-71
2022/05/22 12:09:44;;;;;;;;;;;27.40;57.00;;;;;;5074546;28;19908;-71
2022/05/22 12:12:17;;;;;;;;;;;27.40;56.80;;;;;;5050040;28;20369;-71
2022/05/22 12:14:54;;;;;;;;;;;27.80;58.20;;;;;;5069807;28;19908;-71
2022/05/22 12:17:49;;;;;;;;;;;27.50;53.30;;;;;;5069224;28;19909;-71
2022/05/22 12:20:19;;;;;;;;;;;28.20;57.90;;;;;;5062861;28;19991;-71
2022/05/22 12:23:10;;;;;;;;;;;27.70;54.30;;;;;;5073222;28;20008;-71
2022/05/22 12:25:40;;;;;;;;;;;27.70;56.10;;;;;;5060788;28;19916;-71
2022/05/22 12:28:15;;;;;;;;;;;28.00;52.40;;;;;;5066186;28;19909;-71
2022/05/22 12:30:42;;;;;;;;;;;26.90;51.70;;;;;;5073556;28;20362;-71
2022/05/22 12:33:11;;;;;;;;;;;25.70;58.10;;;;;;5058976;28;19913;-71
2022/05/22 12:35:38;;;;;;;;;;;27.10;56.90;;;;;;5046657;28;20516;-70
2022/05/22 12:38:05;;;;;;;;;;;28.70;48.80;;;;;;5054208;28;20316;-70
2022/05/22 12:40:43;;;;;;;;;;;29.60;47.40;;;;;;5053883;28;19994;-72
2022/05/22 12:43:09;;;;;;;;;;;29.90;51.50;;;;;;5052695;28;19920;-70
2022/05/22 12:45:36;;;;;;;;;;;30.70;49.50;;;;;;5053666;28;19909;-71
2022/05/22 12:48:13;;;;;;;;;;;30.90;49.30;;;;;;5067609;28;19966;-71
2022/05/22 12:50:38;;;;;;;;;;;31.00;46.90;;;;;;5066302;28;19921;-70
2022/05/22 12:53:14;;;;;;;;;;;31.40;48.30;;;;;;5063711;28;20013;-70
2022/05/22 12:55:40;;;;;;;;;;;31.70;47.80;;;;;;5053141;28;19999;-71
2022/05/22 12:58:06;;;;;;;;;;;30.80;50.20;;;;;;5056439;28;19963;-71
2022/05/22 13:00:31;;;;;;;;;;;29.00;52.70;;;;;;5053383;28;20351;-71
2022/05/22 13:03:06;;;;;;;;;;;28.80;52.70;;;;;;5052461;28;19917;-70
2022/05/22 13:05:33;;;;;;;;;;;29.20;52.80;;;;;;5053188;28;19909;-71
2022/05/22 13:07:58;;;;;;;;;;;28.80;54.40;;;;;;5053866;28;19978;-70
2022/05/22 13:10:24;;;;;;;;;;;28.00;54.00;;;;;;5053661;28;20373;-70
2022/05/22 13:12:52;;;;;;;;;;;30.80;53.50;;;;;;5068360;28;19958;-70
2022/05/22 13:15:22;;;;;;;;;;;32.00;50.00;;;;;;5071745;28;19909;-70
2022/05/22 13:17:52;;;;;;;;;;;32.50;51.20;;;;;;5072821;28;19913;-71
2022/05/22 13:20:35;;;;;;;;;;;34.10;46.30;;;;;;5056370;28;19991;-70
2022/05/22 13:23:09;;;;;;;;;;;30.90;48.60;;;;;;5059452;28;19916;-70
2022/05/22 13:25:43;;;;;;;;;;;28.20;54.00;;;;;;5045377;28;19913;-70
2022/05/22 13:28:21;;;;;;;;;;;27.00;58.90;;;;;;5047247;28;20354;-72
2022/05/22 13:30:52;;;;;;;;;;;27.80;57.30;;;;;;5062133;28;20051;-71
2022/05/22 13:33:17;;;;;;;;;;;30.20;48.90;;;;;;5058159;28;19913;-71
2022/05/22 13:35:57;;;;;;;;;;;29.10;51.30;;;;;;5070664;28;19915;-71
2022/05/22 13:38:22;;;;;;;;;;;27.90;55.00;;;;;;5059707;28;20205;-71
2022/05/22 13:40:48;;;;;;;;;;;27.20;59.50;;;;;;5060116;28;19912;-71
2022/05/22 13:43:32;;;;;;;;;;;26.80;61.70;;;;;;5052182;28;19913;-71
2022/05/22 13:46:03;;;;;;;;;;;26.20;56.90;;;;;;5071433;28;20003;-71
2022/05/22 13:48:29;;;;;;;;;;;25.50;60.80;;;;;;5045058;28;19909;-71
2022/05/22 13:54:00;;;;;;;;;;;25.90;59.50;;;;;;5068205;28;19961;-71
2022/05/22 13:56:39;;;;;;;;;;;25.60;64.20;;;;;;5059209;28;20003;-71
2022/05/22 13:59:07;;;;;;;;;;;26.30;61.70;;;;;;5057787;28;19908;-71
2022/05/22 14:01:33;;;;;;;;;;;26.30;62.70;;;;;;5058376;28;20286;-70
2022/05/22 14:04:00;;;;;;;;;;;25.90;61.70;;;;;;5070926;28;19913;-70
2022/05/22 14:06:30;;;;;;;;;;;26.90;59.70;;;;;;5052523;28;19908;-71
2022/05/22 14:08:57;;;;;;;;;;;26.80;60.40;;;;;;5071581;28;19955;-71
2022/05/22 14:11:25;;;;;;;;;;;26.40;61.10;;;;;;5058482;28;19909;-71
2022/05/22 14:13:51;;;;;;;;;;;25.60;61.80;;;;;;5064654;28;19919;-71
2022/05/22 14:16:21;;;;;;;;;;;25.00;61.90;;;;;;5071446;28;19908;-71
2022/05/22 14:18:56;;;;;;;;;;;24.70;62.30;;;;;;5058955;28;19910;-71
2022/05/22 14:21:21;;;;;;;;;;;24.40;63.10;;;;;;5064654;28;20373;-72
2022/05/22 14:26:32;;;;;;;;;;;24.50;62.80;;;;;;5054099;28;19990;-70
2022/05/22 14:28:57;;;;;;;;;;;24.80;65.70;;;;;;5065335;28;20374;-70
2022/05/22 14:31:26;;;;;;;;;;;24.90;65.00;;;;;;5068552;28;19916;-70
2022/05/22 14:34:01;;;;;;;;;;;26.10;62.80;;;;;;5053778;28;20141;-70
2022/05/22 14:36:26;;;;;;;;;;;25.40;61.30;;;;;;5064149;28;19909;-71
2022/05/22 14:38:52;;;;;;;;;;;26.90;57.50;;;;;;5064090;28;19913;-71
2022/05/22 14:41:22;;;;;;;;;;;29.50;57.40;;;;;;5057524;28;19940;-71
2022/05/22 14:43:48;;;;;;;;;;;29.10;54.50;;;;;;5070881;28;20354;-71